TAF LFLX
LFLX 280500Z 2806/2912 30015G25KT 9999 BKN016 TEMPO 2806/2811 4000 -RA BKN012 BKN030TCU PROB30 TEMPO 2806/2811 2500 -RASN BKN008 BECMG 2811/2813 BKN025 PROB40 TEMPO 2814/2819 4000 -SHRA SCT030CB PROB30 TEMPO 2815/2819 2500 -SHRASN BECMG 2819/2821 29008KT TEMPO 2904/2908 2500 -RASN BKN006 BKN015TCU PROB40 TEMPO 2904/2908 -SHSN PROB40 TEMPO 2908/2910 3000 BR BKN006 PROB40 TEMPO 2910/2912 BKN012=
METAR LFLX
LFLX 280830Z AUTO 28011KT 9999 -RA BKN010 OVC017 03/02 Q1004 TEMPO 2500 -RASN BKN012 BKN030TCU BECMG 30015G25KT=
LFLX 280800Z AUTO 29012KT 9999 -RA OVC007 02/02 Q1004 TEMPO 2500 -RASN BKN012 BKN030TCU BECMG 30015G25KT=
LFLX 280730Z AUTO 29012KT 9999 -RA OVC008 02/02 Q1003 TEMPO 2500 -RASN BKN012 BKN030TCU BECMG 30015G25KT=
LFLX 280700Z AUTO 29013KT 9999 -DZ OVC009 03/02 Q1003 TEMPO 2500 -RASN BKN012 BKN030TCU BECMG 30015G25KT=
LFLX 280630Z AUTO 29012KT 9999 -RA OVC009 02/01 Q1003 TEMPO 2500 -RASN BKN012 BKN030TCU BECMG 30015G25KT=
WC LFLX
WS LFLX
WV LFLX